sensor_id;sensor_type;location;lat;lon;timestamp;temperature;humidity
21417;DHT22;10869;52.238;10.716;2023-02-07T04:05:37;-4.20;99.90
21417;DHT22;10869;52.238;10.716;2023-02-07T04:08:03;-4.10;99.90
21417;DHT22;10869;52.238;10.716;2023-02-07T04:10:29;-4.00;99.90
21417;DHT22;10869;52.238;10.716;2023-02-07T04:12:54;-4.10;99.90
21417;DHT22;10869;52.238;10.716;2023-02-07T04:15:20;-4.10;99.90
21417;DHT22;10869;52.238;10.716;2023-02-07T04:17:46;-4.10;99.90
21417;DHT22;10869;52.238;10.716;2023-02-07T04:20:12;-4.10;99.90
21417;DHT22;10869;52.238;10.716;2023-02-07T04:22:38;-4.20;99.90
21417;DHT22;10869;52.238;10.716;2023-02-07T04:25:10;-4.20;99.90
21417;DHT22;10869;52.238;10.716;2023-02-07T04:27:35;-4.20;99.90
21417;DHT22;10869;52.238;10.716;2023-02-07T04:30:01;-4.10;99.90
21417;DHT22;10869;52.238;10.716;2023-02-07T04:32:27;-4.20;99.90
21417;DHT22;10869;52.238;10.716;2023-02-07T04:34:53;-4.20;99.90
21417;DHT22;10869;52.238;10.716;2023-02-07T04:37:18;-4.20;99.90
21417;DHT22;10869;52.238;10.716;2023-02-07T04:39:44;-4.20;99.90
21417;DHT22;10869;52.238;10.716;2023-02-07T04:42:11;-4.20;99.90
21417;DHT22;10869;52.238;10.716;2023-02-07T04:44:37;-4.30;99.90
21417;DHT22;10869;52.238;10.716;2023-02-07T04:47:03;-4.30;99.90
21417;DHT22;10869;52.238;10.716;2023-02-07T04:49:29;-4.30;99.90
21417;DHT22;10869;52.238;10.716;2023-02-07T04:51:55;-4.30;99.90
21417;DHT22;10869;52.238;10.716;2023-02-07T04:54:21;-4.40;99.90
21417;DHT22;10869;52.238;10.716;2023-02-07T04:56:47;-4.40;99.90
21417;DHT22;10869;52.238;10.716;2023-02-07T04:59:13;-4.40;99.90
21417;DHT22;10869;52.238;10.716;2023-02-07T05:01:38;-4.50;99.90
21417;DHT22;10869;52.238;10.716;2023-02-07T05:04:04;-4.50;99.90
21417;DHT22;10869;52.238;10.716;2023-02-07T05:06:30;-4.50;99.90
21417;DHT22;10869;52.238;10.716;2023-02-07T05:08:56;-4.50;99.90
21417;DHT22;10869;52.238;10.716;2023-02-07T05:11:21;-4.50;99.90
21417;DHT22;10869;52.238;10.716;2023-02-07T05:13:48;-4.50;99.90
21417;DHT22;10869;52.238;10.716;2023-02-07T05:16:14;-4.60;99.90
21417;DHT22;10869;52.238;10.716;2023-02-07T05:18:39;-4.60;99.90
21417;DHT22;10869;52.238;10.716;2023-02-07T05:21:05;-4.60;99.90
21417;DHT22;10869;52.238;10.716;2023-02-07T05:23:31;-4.60;99.90
21417;DHT22;10869;52.238;10.716;2023-02-07T05:25:56;-4.60;99.90
21417;DHT22;10869;52.238;10.716;2023-02-07T05:28:22;-4.70;99.90
21417;DHT22;10869;52.238;10.716;2023-02-07T05:30:52;-4.70;99.90
21417;DHT22;10869;52.238;10.716;2023-02-07T05:33:18;-4.80;99.90
21417;DHT22;10869;52.238;10.716;2023-02-07T05:35:44;-4.80;99.90
21417;DHT22;10869;52.238;10.716;2023-02-07T05:38:13;-4.80;99.90
21417;DHT22;10869;52.238;10.716;2023-02-07T05:40:40;-4.90;99.90
21417;DHT22;10869;52.238;10.716;2023-02-07T05:43:06;-4.90;99.90
21417;DHT22;10869;52.238;10.716;2023-02-07T05:45:33;-5.00;99.90
21417;DHT22;10869;52.238;10.716;2023-02-07T05:47:59;-4.90;99.90
21417;DHT22;10869;52.238;10.716;2023-02-07T05:50:24;-4.90;99.90
21417;DHT22;10869;52.238;10.716;2023-02-07T05:52:50;-4.90;99.90
21417;DHT22;10869;52.238;10.716;2023-02-07T05:55:16;-5.00;99.90
21417;DHT22;10869;52.238;10.716;2023-02-07T05:57:44;-5.00;99.90
21417;DHT22;10869;52.238;10.716;2023-02-07T06:00:15;-4.90;99.90
21417;DHT22;10869;52.238;10.716;2023-02-07T06:02:42;-4.90;99.90
21417;DHT22;10869;52.238;10.716;2023-02-07T06:05:11;-4.90;99.90
21417;DHT22;10869;52.238;10.716;2023-02-07T06:07:37;-4.80;99.90
21417;DHT22;10869;52.238;10.716;2023-02-07T06:10:06;-4.80;99.90
21417;DHT22;10869;52.238;10.716;2023-02-07T06:12:33;-4.80;99.90
21417;DHT22;10869;52.238;10.716;2023-02-07T06:14:59;-4.80;99.90
21417;DHT22;10869;52.238;10.716;2023-02-07T06:17:25;-4.80;99.90
21417;DHT22;10869;52.238;10.716;2023-02-07T06:19:50;-4.80;99.90
21417;DHT22;10869;52.238;10.716;2023-02-07T06:22:16;-4.90;99.90
21417;DHT22;10869;52.238;10.716;2023-02-07T06:24:42;-5.00;99.90
21417;DHT22;10869;52.238;10.716;2023-02-07T06:27:08;-5.00;99.90
21417;DHT22;10869;52.238;10.716;2023-02-07T06:29:34;-5.00;99.90
21417;DHT22;10869;52.238;10.716;2023-02-07T06:31:59;-5.10;99.90
21417;DHT22;10869;52.238;10.716;2023-02-07T06:34:25;-5.00;99.90
21417;DHT22;10869;52.238;10.716;2023-02-07T06:36:51;-5.10;99.90
21417;DHT22;10869;52.238;10.716;2023-02-07T06:39:17;-5.10;99.90
21417;DHT22;10869;52.238;10.716;2023-02-07T06:41:43;-5.20;99.90
21417;DHT22;10869;52.238;10.716;2023-02-07T06:47:20;-5.20;99.90
21417;DHT22;10869;52.238;10.716;2023-02-07T06:49:46;-5.20;99.90
21417;DHT22;10869;52.238;10.716;2023-02-07T06:52:12;-5.20;99.90
21417;DHT22;10869;52.238;10.716;2023-02-07T06:54:37;-5.20;99.90
21417;DHT22;10869;52.238;10.716;2023-02-07T06:57:03;-5.30;99.90
21417;DHT22;10869;52.238;10.716;2023-02-07T06:59:31;-5.30;99.90
21417;DHT22;10869;52.238;10.716;2023-02-07T07:01:57;-5.20;99.90
21417;DHT22;10869;52.238;10.716;2023-02-07T07:04:25;-5.20;99.90
21417;DHT22;10869;52.238;10.716;2023-02-07T07:06:51;-5.20;99.90
21417;DHT22;10869;52.238;10.716;2023-02-07T07:09:17;-5.20;99.90
21417;DHT22;10869;52.238;10.716;2023-02-07T07:11:43;-5.10;99.90
21417;DHT22;10869;52.238;10.716;2023-02-07T07:14:12;-5.10;99.90
21417;DHT22;10869;52.238;10.716;2023-02-07T07:19:59;-5.00;99.90
21417;DHT22;10869;52.238;10.716;2023-02-07T07:22:30;-4.90;99.90
21417;DHT22;10869;52.238;10.716;2023-02-07T07:24:56;-4.90;99.90
21417;DHT22;10869;52.238;10.716;2023-02-07T07:27:25;-4.90;99.90
21417;DHT22;10869;52.238;10.716;2023-02-07T07:29:50;-4.80;99.90
21417;DHT22;10869;52.238;10.716;2023-02-07T07:32:16;-4.80;99.90
21417;DHT22;10869;52.238;10.716;2023-02-07T07:34:42;-4.70;99.90
21417;DHT22;10869;52.238;10.716;2023-02-07T07:37:10;-4.70;99.90
21417;DHT22;10869;52.238;10.716;2023-02-07T07:42:57;-4.50;99.90
21417;DHT22;10869;52.238;10.716;2023-02-07T07:45:23;-4.40;99.90
21417;DHT22;10869;52.238;10.716;2023-02-07T07:51:12;-4.30;99.90
21417;DHT22;10869;52.238;10.716;2023-02-07T07:53:42;-4.20;99.90
21417;DHT22;10869;52.238;10.716;2023-02-07T07:56:08;-4.10;99.90
21417;DHT22;10869;52.238;10.716;2023-02-07T07:58:34;-4.00;99.90
21417;DHT22;10869;52.238;10.716;2023-02-07T08:00:59;-3.90;99.90
21417;DHT22;10869;52.238;10.716;2023-02-07T08:03:25;-3.90;99.90
21417;DHT22;10869;52.238;10.716;2023-02-07T08:05:51;-3.80;99.90
21417;DHT22;10869;52.238;10.716;2023-02-07T08:08:17;-3.70;99.90
21417;DHT22;10869;52.238;10.716;2023-02-07T08:10:44;-3.60;99.90
21417;DHT22;10869;52.238;10.716;2023-02-07T08:13:10;-3.50;99.90
21417;DHT22;10869;52.238;10.716;2023-02-07T08:15:36;-3.50;99.90
21417;DHT22;10869;52.238;10.716;2023-02-07T08:18:02;-3.40;99.90
21417;DHT22;10869;52.238;10.716;2023-02-07T08:20:28;-3.40;99.90
21417;DHT22;10869;52.238;10.716;2023-02-07T08:22:54;-3.30;99.90
21417;DHT22;10869;52.238;10.716;2023-02-07T08:25:20;-3.20;99.90
21417;DHT22;10869;52.238;10.716;2023-02-07T08:27:45;-3.10;99.90
21417;DHT22;10869;52.238;10.716;2023-02-07T08:30:12;-2.90;99.90
21417;DHT22;10869;52.238;10.716;2023-02-07T08:32:38;-2.80;99.90
21417;DHT22;10869;52.238;10.716;2023-02-07T08:35:05;-2.70;99.90
21417;DHT22;10869;52.238;10.716;2023-02-07T08:37:31;-2.60;99.90
21417;DHT22;10869;52.238;10.716;2023-02-07T08:39:56;-2.40;99.90
21417;DHT22;10869;52.238;10.716;2023-02-07T08:42:23;-2.30;99.90
21417;DHT22;10869;52.238;10.716;2023-02-07T08:44:49;-2.20;99.90
21417;DHT22;10869;52.238;10.716;2023-02-07T08:47:16;-2.10;99.90
21417;DHT22;10869;52.238;10.716;2023-02-07T08:49:42;-2.00;99.90
21417;DHT22;10869;52.238;10.716;2023-02-07T08:52:10;-1.90;99.90
21417;DHT22;10869;52.238;10.716;2023-02-07T08:54:36;-1.80;99.90
21417;DHT22;10869;52.238;10.716;2023-02-07T08:57:02;-1.70;99.90
21417;DHT22;10869;52.238;10.716;2023-02-07T08:59:28;-1.60;99.90
21417;DHT22;10869;52.238;10.716;2023-02-07T09:01:54;-1.40;99.90
21417;DHT22;10869;52.238;10.716;2023-02-07T09:04:20;-1.30;99.90
21417;DHT22;10869;52.238;10.716;2023-02-07T09:06:45;-1.20;99.90
21417;DHT22;10869;52.238;10.716;2023-02-07T09:09:11;-1.10;99.90
21417;DHT22;10869;52.238;10.716;2023-02-07T09:11:37;-0.90;99.90
21417;DHT22;10869;52.238;10.716;2023-02-07T09:14:03;-0.80;99.90
21417;DHT22;10869;52.238;10.716;2023-02-07T09:16:29;-0.70;99.90
21417;DHT22;10869;52.238;10.716;2023-02-07T09:18:55;-0.60;99.90
21417;DHT22;10869;52.238;10.716;2023-02-07T09:21:21;-0.40;99.90
21417;DHT22;10869;52.238;10.716;2023-02-07T09:23:47;-0.30;99.90
21417;DHT22;10869;52.238;10.716;2023-02-07T09:26:20;-0.20;99.90
21417;DHT22;10869;52.238;10.716;2023-02-07T09:28:47;-0.10;99.90
21417;DHT22;10869;52.238;10.716;2023-02-07T09:31:14;0.00;99.90
21417;DHT22;10869;52.238;10.716;2023-02-07T09:33:41;0.10;99.90
21417;DHT22;10869;52.238;10.716;2023-02-07T09:36:23;0.30;99.90
21417;DHT22;10869;52.238;10.716;2023-02-07T09:39:00;0.40;99.90
21417;DHT22;10869;52.238;10.716;2023-02-07T09:47:13;0.80;99.90
21417;DHT22;10869;52.238;10.716;2023-02-07T09:52:18;1.10;99.90
21417;DHT22;10869;52.238;10.716;2023-02-07T09:54:49;1.20;99.90
21417;DHT22;10869;52.238;10.716;2023-02-07T09:57:29;1.30;99.90
21417;DHT22;10869;52.238;10.716;2023-02-07T10:03:04;1.60;99.90
21417;DHT22;10869;52.238;10.716;2023-02-07T10:05:48;1.80;99.90
21417;DHT22;10869;52.238;10.716;2023-02-07T10:08:18;2.00;99.90
21417;DHT22;10869;52.238;10.716;2023-02-07T10:10:49;2.10;99.90
21417;DHT22;10869;52.238;10.716;2023-02-07T10:19:36;2.50;99.90
21417;DHT22;10869;52.238;10.716;2023-02-07T10:27:38;2.90;99.90
21417;DHT22;10869;52.238;10.716;2023-02-07T10:33:11;2.80;99.90
21417;DHT22;10869;52.238;10.716;2023-02-07T10:35:46;2.60;99.90
21417;DHT22;10869;52.238;10.716;2023-02-07T10:38:32;2.50;99.90
21417;DHT22;10869;52.238;10.716;2023-02-07T10:41:09;2.60;99.90
21417;DHT22;10869;52.238;10.716;2023-02-07T10:43:39;2.80;99.90
21417;DHT22;10869;52.238;10.716;2023-02-07T10:51:38;2.80;99.90
21417;DHT22;10869;52.238;10.716;2023-02-07T10:54:11;2.90;99.90
21417;DHT22;10869;52.238;10.716;2023-02-07T10:57:01;2.90;99.90
21417;DHT22;10869;52.238;10.716;2023-02-07T10:59:42;3.00;99.90
21417;DHT22;10869;52.238;10.716;2023-02-07T11:05:25;3.10;99.90
21417;DHT22;10869;52.238;10.716;2023-02-07T11:08:26;3.10;99.90
21417;DHT22;10869;52.238;10.716;2023-02-07T11:10:58;3.20;99.90
21417;DHT22;10869;52.238;10.716;2023-02-07T11:13:27;3.30;99.90
21417;DHT22;10869;52.238;10.716;2023-02-07T11:16:02;3.30;99.90
21417;DHT22;10869;52.238;10.716;2023-02-07T11:18:32;3.40;99.90
21417;DHT22;10869;52.238;10.716;2023-02-07T11:24:27;3.50;99.90
21417;DHT22;10869;52.238;10.716;2023-02-07T11:27:10;3.60;99.90
21417;DHT22;10869;52.238;10.716;2023-02-07T11:29:57;3.60;99.90
21417;DHT22;10869;52.238;10.716;2023-02-07T11:32:27;3.70;99.90
21417;DHT22;10869;52.238;10.716;2023-02-07T11:34:57;3.70;99.90
21417;DHT22;10869;52.238;10.716;2023-02-07T11:39:54;3.90;99.90
21417;DHT22;10869;52.238;10.716;2023-02-07T11:42:24;4.00;99.90
21417;DHT22;10869;52.238;10.716;2023-02-07T11:44:51;4.00;99.90
21417;DHT22;10869;52.238;10.716;2023-02-07T11:47:27;4.00;99.90
21417;DHT22;10869;52.238;10.716;2023-02-07T11:49:56;4.10;99.90
21417;DHT22;10869;52.238;10.716;2023-02-07T11:52:24;4.10;99.90
21417;DHT22;10869;52.238;10.716;2023-02-07T11:54:59;4.20;99.90
21417;DHT22;10869;52.238;10.716;2023-02-07T11:57:31;4.20;99.90
21417;DHT22;10869;52.238;10.716;2023-02-07T12:00:13;4.30;99.90
21417;DHT22;10869;52.238;10.716;2023-02-07T12:03:05;4.30;99.90
21417;DHT22;10869;52.238;10.716;2023-02-07T12:05:43;4.30;99.90
21417;DHT22;10869;52.238;10.716;2023-02-07T12:08:15;4.30;99.90
21417;DHT22;10869;52.238;10.716;2023-02-07T12:10:48;4.30;99.90
21417;DHT22;10869;52.238;10.716;2023-02-07T12:13:37;4.40;99.90
21417;DHT22;10869;52.238;10.716;2023-02-07T12:16:07;4.50;99.90
21417;DHT22;10869;52.238;10.716;2023-02-07T12:18:47;4.40;99.90
21417;DHT22;10869;52.238;10.716;2023-02-07T12:21:31;4.50;99.90
21417;DHT22;10869;52.238;10.716;2023-02-07T12:24:09;4.60;99.90
21417;DHT22;10869;52.238;10.716;2023-02-07T12:26:58;4.70;99.90
21417;DHT22;10869;52.238;10.716;2023-02-07T12:35:13;4.60;99.90
21417;DHT22;10869;52.238;10.716;2023-02-07T12:58:49;4.60;99.70
21417;DHT22;10869;52.238;10.716;2023-02-07T13:22:39;4.60;99.90
21417;DHT22;10869;52.238;10.716;2023-02-07T13:28:50;4.80;99.90
21417;DHT22;10869;52.238;10.716;2023-02-07T13:31:34;4.80;99.90
21417;DHT22;10869;52.238;10.716;2023-02-07T13:34:02;4.80;99.90
21417;DHT22;10869;52.238;10.716;2023-02-07T13:36:45;4.70;99.90
21417;DHT22;10869;52.238;10.716;2023-02-07T13:42:12;4.80;99.90
21417;DHT22;10869;52.238;10.716;2023-02-07T13:51:03;4.80;99.90
21417;DHT22;10869;52.238;10.716;2023-02-07T13:56:12;4.70;99.90
21417;DHT22;10869;52.238;10.716;2023-02-07T13:58:59;4.80;99.90
21417;DHT22;10869;52.238;10.716;2023-02-07T14:01:57;4.80;99.90
21417;DHT22;10869;52.238;10.716;2023-02-07T14:04:24;4.80;99.90
21417;DHT22;10869;52.238;10.716;2023-02-07T14:09:31;4.60;99.90
21417;DHT22;10869;52.238;10.716;2023-02-07T14:17:06;4.40;99.90
21417;DHT22;10869;52.238;10.716;2023-02-07T14:22:25;4.20;99.90
21417;DHT22;10869;52.238;10.716;2023-02-07T14:27:34;4.00;99.90
21417;DHT22;10869;52.238;10.716;2023-02-07T14:30:11;3.90;99.90
21417;DHT22;10869;52.238;10.716;2023-02-07T14:35:27;3.80;99.90
21417;DHT22;10869;52.238;10.716;2023-02-07T14:49:21;3.40;99.90
21417;DHT22;10869;52.238;10.716;2023-02-07T14:51:58;3.40;99.90
21417;DHT22;10869;52.238;10.716;2023-02-07T14:54:25;3.30;99.90
21417;DHT22;10869;52.238;10.716;2023-02-07T15:06:03;3.20;99.90
21417;DHT22;10869;52.238;10.716;2023-02-07T15:12:05;3.20;99.90
21417;DHT22;10869;52.238;10.716;2023-02-07T15:17:57;3.00;99.90
21417;DHT22;10869;52.238;10.716;2023-02-07T15:23:56;2.80;99.90
21417;DHT22;10869;52.238;10.716;2023-02-07T15:26:22;2.60;99.90
21417;DHT22;10869;52.238;10.716;2023-02-07T15:28:57;2.50;99.90
21417;DHT22;10869;52.238;10.716;2023-02-07T15:34:47;2.30;99.90
21417;DHT22;10869;52.238;10.716;2023-02-07T15:48:13;1.90;99.90
21417;DHT22;10869;52.238;10.716;2023-02-07T15:50:39;1.80;99.90
21417;DHT22;10869;52.238;10.716;2023-02-07T15:53:14;1.60;99.90
21417;DHT22;10869;52.238;10.716;2023-02-07T15:55:47;1.50;99.90
21417;DHT22;10869;52.238;10.716;2023-02-07T15:58:33;1.30;99.90
21417;DHT22;10869;52.238;10.716;2023-02-07T16:01:24;1.20;99.90
21417;DHT22;10869;52.238;10.716;2023-02-07T16:03:52;1.00;99.90
21417;DHT22;10869;52.238;10.716;2023-02-07T16:06:27;0.80;99.90
21417;DHT22;10869;52.238;10.716;2023-02-07T16:09:53;0.70;99.90
21417;DHT22;10869;52.238;10.716;2023-02-07T16:12:29;0.60;99.90
21417;DHT22;10869;52.238;10.716;2023-02-07T16:15:00;0.50;99.90
21417;DHT22;10869;52.238;10.716;2023-02-07T16:17:40;0.40;99.90
21417;DHT22;10869;52.238;10.716;2023-02-07T16:20:13;0.30;99.90
21417;DHT22;10869;52.238;10.716;2023-02-07T16:22:40;0.20;99.90
21417;DHT22;10869;52.238;10.716;2023-02-07T16:25:20;0.20;99.90
21417;DHT22;10869;52.238;10.716;2023-02-07T16:27:53;0.10;99.90
21417;DHT22;10869;52.238;10.716;2023-02-07T16:33:11;0.00;99.90
21417;DHT22;10869;52.238;10.716;2023-02-07T16:35:37;-0.10;99.90
21417;DHT22;10869;52.238;10.716;2023-02-07T16:38:06;-0.20;99.90
21417;DHT22;10869;52.238;10.716;2023-02-07T16:40:32;-0.30;99.90
21417;DHT22;10869;52.238;10.716;2023-02-07T16:42:59;-0.40;99.90
21417;DHT22;10869;52.238;10.716;2023-02-07T16:45:36;-0.50;99.90
21417;DHT22;10869;52.238;10.716;2023-02-07T16:48:04;-0.60;99.90
21417;DHT22;10869;52.238;10.716;2023-02-07T16:50:30;-0.60;99.90
21417;DHT22;10869;52.238;10.716;2023-02-07T16:52:56;-0.70;99.90
21417;DHT22;10869;52.238;10.716;2023-02-07T16:55:41;-0.80;99.90
21417;DHT22;10869;52.238;10.716;2023-02-07T16:58:09;-0.80;99.90
21417;DHT22;10869;52.238;10.716;2023-02-07T17:00:40;-0.90;99.90
21417;DHT22;10869;52.238;10.716;2023-02-07T17:03:27;-1.00;99.90
21417;DHT22;10869;52.238;10.716;2023-02-07T17:05:53;-1.10;99.90
21417;DHT22;10869;52.238;10.716;2023-02-07T17:08:20;-1.10;99.90
21417;DHT22;10869;52.238;10.716;2023-02-07T17:10:59;-1.20;99.90
21417;DHT22;10869;52.238;10.716;2023-02-07T17:13:33;-1.30;99.90
21417;DHT22;10869;52.238;10.716;2023-02-07T17:15:59;-1.30;99.90
21417;DHT22;10869;52.238;10.716;2023-02-07T17:18:25;-1.30;99.90
21417;DHT22;10869;52.238;10.716;2023-02-07T17:20:51;-1.30;99.90
21417;DHT22;10869;52.238;10.716;2023-02-07T17:23:17;-1.30;99.90
21417;DHT22;10869;52.238;10.716;2023-02-07T17:25:44;-1.40;99.90
21417;DHT22;10869;52.238;10.716;2023-02-07T17:28:12;-1.40;99.90
21417;DHT22;10869;52.238;10.716;2023-02-07T17:30:41;-1.50;99.90
21417;DHT22;10869;52.238;10.716;2023-02-07T17:33:08;-1.50;99.90
21417;DHT22;10869;52.238;10.716;2023-02-07T17:35:35;-1.60;99.90
21417;DHT22;10869;52.238;10.716;2023-02-07T17:38:02;-1.60;99.90
21417;DHT22;10869;52.238;10.716;2023-02-07T17:40:38;-1.60;99.90
21417;DHT22;10869;52.238;10.716;2023-02-07T17:43:07;-1.70;99.90
21417;DHT22;10869;52.238;10.716;2023-02-07T17:45:35;-1.70;99.90
21417;DHT22;10869;52.238;10.716;2023-02-07T17:48:02;-1.80;99.90
21417;DHT22;10869;52.238;10.716;2023-02-07T17:50:33;-1.80;99.90
21417;DHT22;10869;52.238;10.716;2023-02-07T17:53:00;-1.80;99.90
21417;DHT22;10869;52.238;10.716;2023-02-07T17:55:26;-1.90;99.90
21417;DHT22;10869;52.238;10.716;2023-02-07T17:57:53;-1.90;99.90
21417;DHT22;10869;52.238;10.716;2023-02-07T18:02:46;-2.00;99.90
21417;DHT22;10869;52.238;10.716;2023-02-07T18:08:34;-2.10;99.90
21417;DHT22;10869;52.238;10.716;2023-02-07T18:14:22;-2.10;99.90
21417;DHT22;10869;52.238;10.716;2023-02-07T18:16:48;-2.10;99.90
21417;DHT22;10869;52.238;10.716;2023-02-07T18:19:15;-2.20;99.90
21417;DHT22;10869;52.238;10.716;2023-02-07T18:21:42;-2.20;99.90
21417;DHT22;10869;52.238;10.716;2023-02-07T18:24:10;-2.20;99.90
21417;DHT22;10869;52.238;10.716;2023-02-07T18:26:36;-2.30;99.90
21417;DHT22;10869;52.238;10.716;2023-02-07T18:32:24;-2.30;99.90
21417;DHT22;10869;52.238;10.716;2023-02-07T18:38:11;-2.40;99.90
21417;DHT22;10869;52.238;10.716;2023-02-07T18:44:00;-2.50;99.90
21417;DHT22;10869;52.238;10.716;2023-02-07T18:46:28;-2.50;99.90
21417;DHT22;10869;52.238;10.716;2023-02-07T18:48:55;-2.60;99.90
21417;DHT22;10869;52.238;10.716;2023-02-07T18:51:21;-2.60;99.90
21417;DHT22;10869;52.238;10.716;2023-02-07T18:57:10;-2.70;99.90
21417;DHT22;10869;52.238;10.716;2023-02-07T19:02:58;-2.80;99.90
21417;DHT22;10869;52.238;10.716;2023-02-07T19:05:24;-2.80;99.90
21417;DHT22;10869;52.238;10.716;2023-02-07T19:07:52;-2.80;99.90
21417;DHT22;10869;52.238;10.716;2023-02-07T19:10:58;-2.80;99.90
21417;DHT22;10869;52.238;10.716;2023-02-07T19:16:46;-2.90;99.90
21417;DHT22;10869;52.238;10.716;2023-02-07T19:22:35;-2.90;99.90
21417;DHT22;10869;52.238;10.716;2023-02-07T19:28:23;-2.80;99.90
21417;DHT22;10869;52.238;10.716;2023-02-07T19:30:49;-2.80;99.90
21417;DHT22;10869;52.238;10.716;2023-02-07T19:33:18;-2.80;99.90
21417;DHT22;10869;52.238;10.716;2023-02-07T19:38:51;-2.70;99.90
21417;DHT22;10869;52.238;10.716;2023-02-07T19:41:22;-2.70;99.90
21417;DHT22;10869;52.238;10.716;2023-02-07T19:43:48;-2.80;99.90
21417;DHT22;10869;52.238;10.716;2023-02-07T19:46:15;-2.80;99.90
21417;DHT22;10869;52.238;10.716;2023-02-07T19:48:45;-2.90;99.90
21417;DHT22;10869;52.238;10.716;2023-02-07T19:51:23;-2.90;99.90
21417;DHT22;10869;52.238;10.716;2023-02-07T19:53:53;-2.90;99.90
21417;DHT22;10869;52.238;10.716;2023-02-07T19:56:37;-2.90;99.90
21417;DHT22;10869;52.238;10.716;2023-02-07T19:59:06;-2.90;99.90
21417;DHT22;10869;52.238;10.716;2023-02-07T20:01:33;-2.90;99.90
21417;DHT22;10869;52.238;10.716;2023-02-07T20:07:23;-2.90;99.90
21417;DHT22;10869;52.238;10.716;2023-02-07T20:09:50;-2.90;99.90
21417;DHT22;10869;52.238;10.716;2023-02-07T20:12:16;-2.90;99.90
21417;DHT22;10869;52.238;10.716;2023-02-07T20:18:11;-2.90;99.90
21417;DHT22;10869;52.238;10.716;2023-02-07T20:23:59;-2.90;99.90
21417;DHT22;10869;52.238;10.716;2023-02-07T20:29:51;-2.80;99.90
21417;DHT22;10869;52.238;10.716;2023-02-07T20:35:41;-2.90;99.90
21417;DHT22;10869;52.238;10.716;2023-02-07T20:38:07;-2.80;99.90
21417;DHT22;10869;52.238;10.716;2023-02-07T20:40:33;-2.90;99.90
21417;DHT22;10869;52.238;10.716;2023-02-07T20:42:59;-2.90;99.90
21417;DHT22;10869;52.238;10.716;2023-02-07T20:48:46;-2.80;99.90
21417;DHT22;10869;52.238;10.716;2023-02-07T20:51:12;-2.80;99.90
21417;DHT22;10869;52.238;10.716;2023-02-07T20:53:42;-2.80;99.90
21417;DHT22;10869;52.238;10.716;2023-02-07T20:56:15;-2.80;99.90
21417;DHT22;10869;52.238;10.716;2023-02-07T20:58:42;-2.80;99.90
21417;DHT22;10869;52.238;10.716;2023-02-07T21:01:15;-2.80;99.90
21417;DHT22;10869;52.238;10.716;2023-02-07T21:03:42;-2.80;99.90
21417;DHT22;10869;52.238;10.716;2023-02-07T21:06:08;-2.80;99.90
21417;DHT22;10869;52.238;10.716;2023-02-07T21:08:35;-2.80;99.90
21417;DHT22;10869;52.238;10.716;2023-02-07T21:11:01;-2.80;99.90
21417;DHT22;10869;52.238;10.716;2023-02-07T21:16:50;-2.80;99.90
21417;DHT22;10869;52.238;10.716;2023-02-07T21:19:16;-2.80;99.90
21417;DHT22;10869;52.238;10.716;2023-02-07T21:25:04;-2.90;99.90
21417;DHT22;10869;52.238;10.716;2023-02-07T21:27:29;-2.90;99.90
21417;DHT22;10869;52.238;10.716;2023-02-07T21:29:55;-3.00;99.90
21417;DHT22;10869;52.238;10.716;2023-02-07T21:32:21;-3.10;99.90
21417;DHT22;10869;52.238;10.716;2023-02-07T21:38:09;-3.20;99.90
21417;DHT22;10869;52.238;10.716;2023-02-07T21:40:34;-3.20;99.90
21417;DHT22;10869;52.238;10.716;2023-02-07T21:43:00;-3.20;99.90
21417;DHT22;10869;52.238;10.716;2023-02-07T21:45:28;-3.30;99.90
21417;DHT22;10869;52.238;10.716;2023-02-07T21:47:54;-3.30;99.90
21417;DHT22;10869;52.238;10.716;2023-02-07T21:50:22;-3.30;99.90
21417;DHT22;10869;52.238;10.716;2023-02-07T21:52:48;-3.40;99.90
21417;DHT22;10869;52.238;10.716;2023-02-07T21:55:14;-3.40;99.90
21417;DHT22;10869;52.238;10.716;2023-02-07T21:57:40;-3.40;99.90
21417;DHT22;10869;52.238;10.716;2023-02-07T22:00:06;-3.40;99.90
21417;DHT22;10869;52.238;10.716;2023-02-07T22:02:33;-3.40;99.90
21417;DHT22;10869;52.238;10.716;2023-02-07T22:04:58;-3.40;99.90
21417;DHT22;10869;52.238;10.716;2023-02-07T22:07:43;-3.40;99.90
21417;DHT22;10869;52.238;10.716;2023-02-07T22:10:08;-3.40;99.90
21417;DHT22;10869;52.238;10.716;2023-02-07T22:12:35;-3.50;99.90
21417;DHT22;10869;52.238;10.716;2023-02-07T22:15:01;-3.50;99.90
21417;DHT22;10869;52.238;10.716;2023-02-07T22:17:27;-3.50;99.90
21417;DHT22;10869;52.238;10.716;2023-02-07T22:19:52;-3.60;99.90
21417;DHT22;10869;52.238;10.716;2023-02-07T22:22:18;-3.60;99.90
21417;DHT22;10869;52.238;10.716;2023-02-07T22:24:44;-3.60;99.90
21417;DHT22;10869;52.238;10.716;2023-02-07T22:27:10;-3.70;99.90
21417;DHT22;10869;52.238;10.716;2023-02-07T22:29:36;-3.70;99.90
21417;DHT22;10869;52.238;10.716;2023-02-07T22:32:02;-3.70;99.90
21417;DHT22;10869;52.238;10.716;2023-02-07T22:34:28;-3.70;99.90
21417;DHT22;10869;52.238;10.716;2023-02-07T22:36:53;-3.80;99.90
21417;DHT22;10869;52.238;10.716;2023-02-07T22:39:19;-3.80;99.90
21417;DHT22;10869;52.238;10.716;2023-02-07T22:41:45;-3.80;99.90
21417;DHT22;10869;52.238;10.716;2023-02-07T22:44:11;-3.80;99.90
21417;DHT22;10869;52.238;10.716;2023-02-07T22:46:37;-3.90;99.90
21417;DHT22;10869;52.238;10.716;2023-02-07T22:49:03;-3.90;99.90
21417;DHT22;10869;52.238;10.716;2023-02-07T22:51:31;-3.90;99.90
21417;DHT22;10869;52.238;10.716;2023-02-07T22:54:01;-3.90;99.90
21417;DHT22;10869;52.238;10.716;2023-02-07T22:56:33;-3.80;99.90
21417;DHT22;10869;52.238;10.716;2023-02-07T22:58:59;-3.70;99.90
21417;DHT22;10869;52.238;10.716;2023-02-07T23:01:35;-3.70;99.90
21417;DHT22;10869;52.238;10.716;2023-02-07T23:04:02;-3.70;99.90
21417;DHT22;10869;52.238;10.716;2023-02-07T23:06:28;-3.70;99.90
21417;DHT22;10869;52.238;10.716;2023-02-07T23:08:57;-3.70;99.90
21417;DHT22;10869;52.238;10.716;2023-02-07T23:11:23;-3.80;99.90
21417;DHT22;10869;52.238;10.716;2023-02-07T23:13:49;-3.80;99.90
21417;DHT22;10869;52.238;10.716;2023-02-07T23:16:18;-3.90;99.90
21417;DHT22;10869;52.238;10.716;2023-02-07T23:18:45;-3.90;99.90
21417;DHT22;10869;52.238;10.716;2023-02-07T23:21:13;-4.00;99.90
21417;DHT22;10869;52.238;10.716;2023-02-07T23:23:42;-3.90;99.90
21417;DHT22;10869;52.238;10.716;2023-02-07T23:26:09;-4.00;99.90
21417;DHT22;10869;52.238;10.716;2023-02-07T23:28:35;-4.00;99.90
21417;DHT22;10869;52.238;10.716;2023-02-07T23:31:06;-4.00;99.90
21417;DHT22;10869;52.238;10.716;2023-02-07T23:33:32;-4.10;99.90
21417;DHT22;10869;52.238;10.716;2023-02-07T23:35:58;-4.10;99.90
21417;DHT22;10869;52.238;10.716;2023-02-07T23:38:24;-4.10;99.90
21417;DHT22;10869;52.238;10.716;2023-02-07T23:40:50;-4.00;99.90
21417;DHT22;10869;52.238;10.716;2023-02-07T23:43:16;-4.00;99.90
21417;DHT22;10869;52.238;10.716;2023-02-07T23:45:42;-4.00;99.90
21417;DHT22;10869;52.238;10.716;2023-02-07T23:48:07;-4.00;99.90